createdAt,value
2023-05-08T00:02:01.353Z,9.06
2023-05-08T00:04:27.814Z,9.05
2023-05-08T00:06:54.261Z,8.95
2023-05-08T00:09:20.970Z,9.03
2023-05-08T00:11:47.407Z,8.96
2023-05-08T00:14:13.986Z,8.95
2023-05-08T00:16:40.478Z,9.00
2023-05-08T00:19:07.334Z,8.95
2023-05-08T00:21:33.928Z,8.89
2023-05-08T00:24:00.908Z,8.87
2023-05-08T00:26:27.397Z,8.80
2023-05-08T00:28:53.824Z,8.75
2023-05-08T00:31:20.356Z,8.89
2023-05-08T00:33:46.783Z,8.87
2023-05-08T00:36:15.609Z,8.71
2023-05-08T00:38:42.107Z,8.81
2023-05-08T00:41:08.937Z,8.73
2023-05-08T00:43:35.804Z,8.79
2023-05-08T00:46:02.868Z,8.71
2023-05-08T00:48:31.964Z,8.66
2023-05-08T00:51:00.046Z,8.66
2023-05-08T00:53:28.428Z,8.65
2023-05-08T00:55:55.123Z,8.67
2023-05-08T00:58:24.609Z,8.63
2023-05-08T01:00:54.202Z,8.56
2023-05-08T01:03:21.103Z,8.67
2023-05-08T01:05:48.422Z,8.61
2023-05-08T01:08:14.968Z,8.61
2023-05-08T01:10:54.958Z,8.55
2023-05-08T01:13:31.904Z,8.59
2023-05-08T01:16:08.565Z,8.53
2023-05-08T01:18:41.442Z,8.52
2023-05-08T01:21:45.874Z,8.50
2023-05-08T01:24:42.461Z,8.52
2023-05-08T01:27:40.878Z,8.64
2023-05-08T01:30:20.967Z,8.44
2023-05-08T01:32:56.823Z,8.39
2023-05-08T01:35:32.677Z,8.46
2023-05-08T01:38:22.556Z,8.51
2023-05-08T01:40:54.479Z,8.44
2023-05-08T01:43:38.439Z,8.41
2023-05-08T01:46:09.819Z,8.48
2023-05-08T01:48:42.397Z,8.42
2023-05-08T01:51:16.953Z,8.49
2023-05-08T01:53:51.143Z,8.33
2023-05-08T01:56:22.131Z,8.31
2023-05-08T01:58:54.248Z,8.32
2023-05-08T02:01:24.114Z,8.31
2023-05-08T02:03:52.385Z,8.33
2023-05-08T02:06:21.964Z,8.26
2023-05-08T02:08:50.267Z,8.37
2023-05-08T02:11:18.544Z,8.23
2023-05-08T02:13:48.438Z,8.11
2023-05-08T02:16:15.630Z,8.08
2023-05-08T02:18:53.134Z,8.09
2023-05-08T02:21:21.657Z,8.17
2023-05-08T02:23:50.135Z,8.19
2023-05-08T02:26:17.129Z,8.19
2023-05-08T02:28:44.275Z,8.18
2023-05-08T02:31:12.424Z,8.12
2023-05-08T02:33:41.565Z,7.98
2023-05-08T02:36:10.793Z,8.11
2023-05-08T02:38:38.747Z,8.00
2023-05-08T02:41:06.542Z,7.97
2023-05-08T02:43:33.348Z,7.93
2023-05-08T02:46:12.561Z,7.94
2023-05-08T02:48:47.876Z,7.85
2023-05-08T02:51:43.858Z,7.94
2023-05-08T02:54:21.741Z,7.97
2023-05-08T02:57:08.631Z,7.79
2023-05-08T02:59:50.744Z,7.63
2023-05-08T03:02:28.774Z,7.74
2023-05-08T03:04:59.416Z,7.63
2023-05-08T03:07:29.785Z,7.69
2023-05-08T03:10:05.197Z,7.83
2023-05-08T03:12:36.172Z,7.78
2023-05-08T03:15:06.586Z,7.64
2023-05-08T03:17:37.808Z,7.66
2023-05-08T03:20:07.118Z,7.60
2023-05-08T03:22:36.937Z,7.65
2023-05-08T03:25:06.852Z,7.65
2023-05-08T03:27:36.814Z,7.61
2023-05-08T03:30:06.069Z,7.74
2023-05-08T03:32:35.485Z,7.71
2023-05-08T03:35:03.834Z,7.56
2023-05-08T03:37:30.974Z,7.59
2023-05-08T03:39:57.852Z,7.48
2023-05-08T03:42:25.282Z,7.53
2023-05-08T03:44:52.934Z,7.58
2023-05-08T03:47:26.030Z,7.56
2023-05-08T03:49:52.894Z,7.52
2023-05-08T03:52:19.464Z,7.47
2023-05-08T03:54:46.685Z,7.45
2023-05-08T03:57:13.706Z,7.47
2023-05-08T04:00:13.892Z,7.56
2023-05-08T04:02:42.165Z,7.48
2023-05-08T04:05:28.133Z,7.45
2023-05-08T04:08:15.485Z,7.51
2023-05-08T04:11:04.162Z,7.53
2023-05-08T04:13:36.914Z,7.49
2023-05-08T04:16:17.242Z,7.51
2023-05-08T04:18:47.908Z,7.57
2023-05-08T04:21:20.347Z,7.57
2023-05-08T04:23:50.682Z,7.52
2023-05-08T04:26:18.937Z,7.49
2023-05-08T04:28:48.808Z,7.51
2023-05-08T04:31:19.532Z,7.49
2023-05-08T04:33:46.895Z,7.58
2023-05-08T04:36:14.540Z,7.50
2023-05-08T04:38:43.638Z,7.54
2023-05-08T04:41:11.256Z,7.48
2023-05-08T04:43:38.462Z,7.60
2023-05-08T04:46:06.959Z,7.63
2023-05-08T04:48:34.020Z,7.59
2023-05-08T04:51:01.161Z,7.57
2023-05-08T04:53:28.042Z,7.49
2023-05-08T04:55:54.512Z,7.50
2023-05-08T04:58:21.012Z,7.54
2023-05-08T05:00:48.941Z,7.56
2023-05-08T05:03:15.631Z,7.48
2023-05-08T05:05:42.784Z,7.69
2023-05-08T05:08:09.518Z,7.68
2023-05-08T05:10:37.730Z,7.64
2023-05-08T05:13:04.387Z,7.73
2023-05-08T05:15:32.128Z,7.72
2023-05-08T05:17:58.906Z,7.81
2023-05-08T05:20:26.256Z,7.75
2023-05-08T05:22:53.260Z,7.76
2023-05-08T05:25:19.856Z,7.84
2023-05-08T05:27:47.113Z,7.76
2023-05-08T05:30:14.057Z,7.71
2023-05-08T05:32:40.809Z,7.82
2023-05-08T05:35:08.072Z,7.83
2023-05-08T05:37:34.717Z,7.82
2023-05-08T05:40:01.376Z,7.89
2023-05-08T05:42:30.094Z,7.92
2023-05-08T05:44:59.572Z,7.98
2023-05-08T05:47:26.764Z,8.09
2023-05-08T05:49:53.205Z,8.25
2023-05-08T05:52:19.662Z,8.42
2023-05-08T05:54:46.598Z,8.46
2023-05-08T05:57:13.898Z,8.44
2023-05-08T05:59:41.177Z,8.52
2023-05-08T06:02:10.250Z,8.57
2023-05-08T06:04:37.879Z,8.61
2023-05-08T06:07:06.678Z,8.80
2023-05-08T06:09:33.181Z,8.74
2023-05-08T06:11:59.600Z,8.82
2023-05-08T06:14:26.258Z,8.90
2023-05-08T06:16:53.009Z,8.90
2023-05-08T06:19:19.496Z,9.01
2023-05-08T06:21:46.271Z,9.00
2023-05-08T06:24:12.674Z,9.03
2023-05-08T06:26:39.130Z,9.12
2023-05-08T06:29:05.533Z,9.13
2023-05-08T06:31:32.101Z,9.28
2023-05-08T06:33:58.606Z,9.33
2023-05-08T06:36:25.005Z,9.26
2023-05-08T06:38:51.408Z,9.53
2023-05-08T06:41:17.821Z,9.49
2023-05-08T06:43:44.300Z,9.70
2023-05-08T06:46:10.771Z,9.68
2023-05-08T06:48:37.182Z,9.89
2023-05-08T06:51:04.435Z,9.97
2023-05-08T06:53:31.311Z,9.94
2023-05-08T06:56:00.699Z,10.08
2023-05-08T06:58:27.139Z,10.00
2023-05-08T07:00:53.544Z,10.09
2023-05-08T07:03:19.938Z,10.25
2023-05-08T07:05:46.371Z,10.39
2023-05-08T07:08:12.744Z,10.51
2023-05-08T07:10:39.265Z,10.62
2023-05-08T07:13:05.951Z,10.69
2023-05-08T07:15:32.746Z,10.87
2023-05-08T07:17:59.284Z,10.97
2023-05-08T07:20:26.493Z,11.04
2023-05-08T07:22:52.961Z,11.10
2023-05-08T07:25:19.982Z,11.34
2023-05-08T07:27:46.460Z,11.51
2023-05-08T07:30:13.213Z,11.72
2023-05-08T07:32:39.858Z,11.87
2023-05-08T07:35:10.844Z,12.14
2023-05-08T07:37:38.575Z,12.17
2023-05-08T07:40:05.555Z,12.15
2023-05-08T07:42:38.629Z,12.50
2023-05-08T07:45:05.481Z,12.73
2023-05-08T07:47:32.349Z,12.98
2023-05-08T07:49:58.817Z,13.06
2023-05-08T07:52:25.278Z,13.02
2023-05-08T07:54:51.803Z,13.12
2023-05-08T07:57:18.231Z,13.03
2023-05-08T07:59:44.678Z,13.04
2023-05-08T08:02:11.180Z,13.26
2023-05-08T08:04:37.853Z,13.42
2023-05-08T08:07:04.634Z,13.20
2023-05-08T08:09:32.171Z,13.45
2023-05-08T08:11:58.604Z,13.26
2023-05-08T08:14:27.408Z,13.23
2023-05-08T08:16:53.870Z,13.46
2023-05-08T08:19:20.304Z,13.67
2023-05-08T08:21:46.768Z,13.57
2023-05-08T08:24:13.476Z,13.79
2023-05-08T08:26:39.924Z,13.65
2023-05-08T08:29:06.727Z,13.73
2023-05-08T08:31:33.402Z,13.76
2023-05-08T08:33:59.914Z,13.81
2023-05-08T08:36:26.316Z,14.02
2023-05-08T08:38:53.472Z,14.15
2023-05-08T08:41:19.852Z,14.39
2023-05-08T08:43:47.386Z,14.58
2023-05-08T08:46:15.288Z,14.59
2023-05-08T08:48:47.361Z,14.85
2023-05-08T08:51:33.061Z,14.84
2023-05-08T08:54:12.153Z,14.84
2023-05-08T08:56:42.931Z,15.00
2023-05-08T08:59:11.889Z,15.04
2023-05-08T09:01:40.736Z,14.82
2023-05-08T09:04:07.435Z,14.98
2023-05-08T09:06:36.683Z,15.17
2023-05-08T09:09:04.100Z,15.39
2023-05-08T09:11:31.224Z,15.56
2023-05-08T09:13:58.367Z,15.84
2023-05-08T09:16:25.558Z,15.73
2023-05-08T09:18:52.023Z,15.82
2023-05-08T09:21:18.479Z,15.91
2023-05-08T09:24:03.451Z,15.88
2023-05-08T09:26:34.496Z,15.80
2023-05-08T09:29:15.299Z,16.01
2023-05-08T09:31:44.314Z,16.30
2023-05-08T09:34:21.547Z,16.25
2023-05-08T09:36:48.093Z,16.46
2023-05-08T09:39:25.250Z,16.71
2023-05-08T09:42:03.171Z,16.57
2023-05-08T09:44:44.184Z,16.59
2023-05-08T09:47:12.754Z,16.80
2023-05-08T09:49:40.540Z,16.82
2023-05-08T09:52:08.284Z,16.78
2023-05-08T09:54:35.040Z,16.96
2023-05-08T09:57:11.979Z,16.82
2023-05-08T09:59:38.499Z,16.77
2023-05-08T10:02:12.715Z,17.01
2023-05-08T10:04:39.207Z,17.13
2023-05-08T10:07:05.785Z,17.14
2023-05-08T10:09:46.946Z,17.21
2023-05-08T10:12:16.487Z,17.41
2023-05-08T10:14:45.563Z,17.29
2023-05-08T10:17:16.093Z,17.35
2023-05-08T10:19:45.859Z,17.40
2023-05-08T10:22:15.519Z,17.57
2023-05-08T10:24:44.172Z,17.56
2023-05-08T10:27:20.807Z,17.69
2023-05-08T10:29:54.873Z,17.84
2023-05-08T10:32:23.649Z,18.06
2023-05-08T10:34:53.585Z,18.14
2023-05-08T10:37:20.270Z,18.40
2023-05-08T10:39:48.073Z,18.54
2023-05-08T10:42:15.044Z,18.43
2023-05-08T10:44:41.425Z,18.65
2023-05-08T10:47:24.354Z,18.69
2023-05-08T10:50:09.382Z,18.73
2023-05-08T10:52:43.911Z,18.77
2023-05-08T10:55:25.202Z,18.82
2023-05-08T10:58:10.078Z,19.06
2023-05-08T11:00:51.750Z,19.30
2023-05-08T11:03:31.441Z,19.36
2023-05-08T11:06:01.182Z,19.07
2023-05-08T11:08:28.956Z,19.49
2023-05-08T11:10:58.432Z,19.18
2023-05-08T11:13:30.742Z,19.24
2023-05-08T11:15:57.455Z,19.28
2023-05-08T11:18:30.177Z,19.38
2023-05-08T11:21:15.250Z,19.63
2023-05-08T11:23:41.725Z,19.63
2023-05-08T11:26:11.327Z,19.79
2023-05-08T11:28:40.562Z,19.79
2023-05-08T11:31:08.510Z,19.58
2023-05-08T11:33:41.098Z,19.55
2023-05-08T11:36:22.918Z,19.91
2023-05-08T11:39:25.000Z,19.87
2023-05-08T11:41:51.394Z,19.71
2023-05-08T11:44:20.679Z,20.05
2023-05-08T11:46:55.373Z,20.16
2023-05-08T11:49:27.116Z,19.80
2023-05-08T11:51:58.687Z,20.06
2023-05-08T11:54:25.826Z,20.11
2023-05-08T11:56:57.016Z,20.23
2023-05-08T11:59:23.468Z,20.31
2023-05-08T12:02:06.680Z,20.24
2023-05-08T12:04:42.900Z,20.16
2023-05-08T12:07:09.370Z,20.23
2023-05-08T12:09:38.096Z,19.80
2023-05-08T12:12:04.745Z,19.80
2023-05-08T12:14:31.391Z,20.02
2023-05-08T12:16:57.812Z,19.87
2023-05-08T12:19:24.296Z,19.96
2023-05-08T12:21:51.311Z,20.04
2023-05-08T12:24:23.250Z,20.12
2023-05-08T12:26:53.012Z,20.30
2023-05-08T12:29:19.719Z,20.27
2023-05-08T12:31:47.282Z,20.23
2023-05-08T12:34:13.945Z,20.17
2023-05-08T12:36:40.325Z,20.22
2023-05-08T12:39:17.324Z,20.58
2023-05-08T12:41:51.679Z,20.32
2023-05-08T12:44:25.974Z,20.49
2023-05-08T12:46:54.352Z,20.61
2023-05-08T12:49:25.120Z,20.60
2023-05-08T12:51:52.724Z,20.85
2023-05-08T12:54:19.204Z,20.48
2023-05-08T12:56:45.683Z,20.55
2023-05-08T12:59:12.152Z,20.79
2023-05-08T13:01:38.881Z,20.78
2023-05-08T13:04:07.807Z,20.65
2023-05-08T13:06:34.839Z,20.88
2023-05-08T13:09:01.351Z,20.69
2023-05-08T13:11:30.775Z,20.81
2023-05-08T13:13:57.357Z,20.84
2023-05-08T13:16:24.017Z,20.76
2023-05-08T13:18:50.424Z,21.07
2023-05-08T13:21:16.841Z,20.91
2023-05-08T13:23:43.394Z,20.90
2023-05-08T13:26:10.049Z,20.94
2023-05-08T13:28:36.543Z,20.96
2023-05-08T13:31:03.057Z,20.83
2023-05-08T13:33:29.633Z,20.76
2023-05-08T13:35:56.172Z,20.84
2023-05-08T13:38:22.563Z,21.09
2023-05-08T13:40:48.980Z,21.10
2023-05-08T13:43:15.489Z,20.90
2023-05-08T13:45:42.179Z,21.11
2023-05-08T13:48:09.037Z,21.05
2023-05-08T13:50:35.603Z,21.02
2023-05-08T13:53:02.434Z,21.32
2023-05-08T13:55:29.068Z,21.54
2023-05-08T13:57:57.782Z,21.52
2023-05-08T14:00:26.017Z,21.48
2023-05-08T14:02:54.440Z,21.70
2023-05-08T14:05:20.934Z,21.72
2023-05-08T14:07:47.369Z,21.67
2023-05-08T14:10:13.811Z,21.58
2023-05-08T14:12:40.452Z,21.54
2023-05-08T14:15:07.756Z,21.43
2023-05-08T14:17:34.394Z,21.71
2023-05-08T14:20:00.953Z,21.45
2023-05-08T14:22:27.354Z,21.67
2023-05-08T14:24:54.092Z,21.62
2023-05-08T14:27:20.739Z,21.58
2023-05-08T14:29:47.476Z,21.67
2023-05-08T14:32:13.896Z,21.53
2023-05-08T14:34:40.391Z,21.32
2023-05-08T14:37:06.770Z,21.52
2023-05-08T14:39:33.514Z,21.72
2023-05-08T14:42:21.396Z,21.72
2023-05-08T14:44:48.132Z,21.63
2023-05-08T14:47:14.571Z,21.69
2023-05-08T14:49:41.030Z,21.55
2023-05-08T14:52:07.584Z,21.60
2023-05-08T14:54:34.773Z,21.76
2023-05-08T14:57:01.355Z,21.57
2023-05-08T14:59:27.776Z,21.45
2023-05-08T15:01:54.240Z,21.72
2023-05-08T15:04:20.849Z,21.78
2023-05-08T15:06:47.329Z,21.69
2023-05-08T15:09:13.783Z,21.46
2023-05-08T15:11:40.363Z,21.60
2023-05-08T15:14:07.062Z,21.51
2023-05-08T15:16:33.927Z,21.50
2023-05-08T15:19:00.350Z,21.51
2023-05-08T15:21:27.351Z,21.46
2023-05-08T15:23:55.274Z,21.54
2023-05-08T15:26:22.519Z,21.54
2023-05-08T15:28:49.056Z,21.59
2023-05-08T15:31:15.743Z,21.62
2023-05-08T15:33:44.735Z,21.40
2023-05-08T15:36:12.858Z,21.38
2023-05-08T15:38:40.757Z,21.36
2023-05-08T15:41:07.545Z,21.23
2023-05-08T15:43:34.068Z,20.97
2023-05-08T15:46:00.675Z,21.17
2023-05-08T15:48:27.131Z,20.97
2023-05-08T15:50:53.558Z,21.18
2023-05-08T15:53:20.005Z,21.30
2023-05-08T15:55:46.438Z,21.23
2023-05-08T15:58:12.893Z,21.26
2023-05-08T16:00:44.569Z,21.34
2023-05-08T16:03:11.611Z,21.48
2023-05-08T16:05:39.374Z,21.33
2023-05-08T16:08:06.110Z,21.19
2023-05-08T16:10:32.651Z,21.36
2023-05-08T16:12:59.115Z,21.40
2023-05-08T16:15:26.887Z,21.32
2023-05-08T16:17:53.377Z,21.34
2023-05-08T16:20:20.194Z,21.48
2023-05-08T16:22:46.566Z,21.44
2023-05-08T16:25:13.194Z,21.28
2023-05-08T16:27:40.088Z,21.29
2023-05-08T16:30:07.206Z,21.17
2023-05-08T16:32:34.135Z,21.18
2023-05-08T16:35:02.666Z,21.15
2023-05-08T16:37:29.231Z,21.13
2023-05-08T16:39:55.659Z,21.01
2023-05-08T16:42:22.033Z,21.01
2023-05-08T16:44:48.420Z,20.96
2023-05-08T16:47:14.972Z,20.96
2023-05-08T16:49:41.444Z,20.97
2023-05-08T16:52:07.947Z,20.66
2023-05-08T16:54:34.555Z,20.78
2023-05-08T16:57:01.314Z,20.63
2023-05-08T16:59:27.896Z,20.55
2023-05-08T17:01:54.346Z,20.40
2023-05-08T17:04:20.741Z,20.21
2023-05-08T17:06:47.134Z,20.28
2023-05-08T17:09:13.610Z,20.20
2023-05-08T17:11:40.349Z,20.36
2023-05-08T17:14:06.859Z,20.18
2023-05-08T17:16:33.948Z,20.07
2023-05-08T17:19:00.537Z,19.97
2023-05-08T17:21:27.349Z,19.98
2023-05-08T17:23:53.784Z,19.94
2023-05-08T17:26:21.678Z,19.82
2023-05-08T17:28:48.120Z,19.86
2023-05-08T17:31:15.893Z,19.84
2023-05-08T17:33:42.406Z,19.79
2023-05-08T17:36:09.135Z,19.81
2023-05-08T17:38:41.708Z,19.56
2023-05-08T17:41:08.146Z,19.50
2023-05-08T17:43:35.279Z,19.37
2023-05-08T17:46:01.800Z,19.29
2023-05-08T17:48:28.338Z,19.13
2023-05-08T17:50:54.785Z,19.15
2023-05-08T17:53:21.356Z,19.05
2023-05-08T17:55:48.405Z,18.95
2023-05-08T17:58:14.838Z,18.84
2023-05-08T18:00:41.315Z,18.83
2023-05-08T18:03:07.975Z,18.73
2023-05-08T18:05:34.574Z,18.64
2023-05-08T18:08:01.140Z,18.52
2023-05-08T18:10:27.567Z,18.40
2023-05-08T18:12:54.112Z,18.41
2023-05-08T18:15:20.510Z,18.27
2023-05-08T18:17:47.899Z,18.14
2023-05-08T18:20:14.576Z,18.00
2023-05-08T18:22:41.165Z,17.96
2023-05-08T18:25:08.028Z,17.99
2023-05-08T18:27:34.522Z,17.81
2023-05-08T18:30:01.756Z,17.75
2023-05-08T18:32:29.096Z,17.67
2023-05-08T18:34:56.772Z,17.69
2023-05-08T18:37:23.200Z,17.71
2023-05-08T18:39:50.019Z,17.70
2023-05-08T18:42:16.480Z,17.50
2023-05-08T18:44:42.937Z,17.55
2023-05-08T18:47:09.372Z,17.47
2023-05-08T18:49:36.089Z,17.31
2023-05-08T18:52:02.677Z,17.19
2023-05-08T18:54:29.324Z,17.23
2023-05-08T18:56:55.799Z,17.10
2023-05-08T18:59:22.191Z,16.99
2023-05-08T19:01:50.489Z,17.09
2023-05-08T19:04:16.917Z,17.07
2023-05-08T19:06:43.347Z,17.08
2023-05-08T19:09:09.795Z,16.80
2023-05-08T19:11:36.240Z,16.73
2023-05-08T19:14:04.172Z,16.74
2023-05-08T19:16:30.676Z,16.70
2023-05-08T19:18:57.120Z,16.63
2023-05-08T19:21:23.572Z,16.59
2023-05-08T19:23:50.000Z,16.68
2023-05-08T19:26:16.456Z,16.63
2023-05-08T19:28:42.856Z,16.49
2023-05-08T19:31:09.350Z,16.43
2023-05-08T19:33:35.924Z,16.34
2023-05-08T19:36:02.423Z,16.40
2023-05-08T19:38:28.938Z,16.21
2023-05-08T19:40:57.584Z,16.18
2023-05-08T19:43:27.981Z,16.18
2023-05-08T19:45:55.302Z,16.09
2023-05-08T19:48:21.891Z,16.17
2023-05-08T19:50:48.454Z,16.02
2023-05-08T19:53:14.937Z,15.99
2023-05-08T19:55:41.376Z,15.87
2023-05-08T19:58:07.970Z,16.06
2023-05-08T20:00:34.480Z,15.92
2023-05-08T20:03:01.461Z,15.77
2023-05-08T20:05:27.923Z,15.79
2023-05-08T20:07:54.452Z,15.72
2023-05-08T20:10:20.906Z,15.66
2023-05-08T20:12:47.395Z,15.56
2023-05-08T20:15:13.993Z,15.56
2023-05-08T20:17:40.664Z,15.65
2023-05-08T20:20:07.874Z,15.49
2023-05-08T20:22:34.311Z,15.33
2023-05-08T20:25:03.493Z,15.35
2023-05-08T20:27:31.215Z,15.28
2023-05-08T20:29:57.717Z,15.15
2023-05-08T20:32:24.263Z,15.11
2023-05-08T20:34:50.712Z,15.27
2023-05-08T20:37:17.158Z,15.17
2023-05-08T20:39:43.911Z,14.98
2023-05-08T20:42:10.653Z,14.90
2023-05-08T20:44:37.042Z,15.06
2023-05-08T20:47:03.698Z,14.93
2023-05-08T20:49:30.498Z,14.95
2023-05-08T20:51:56.945Z,14.77
2023-05-08T20:54:23.387Z,14.71
2023-05-08T20:56:49.744Z,14.70
2023-05-08T20:59:16.692Z,14.69
2023-05-08T21:01:43.289Z,14.62
2023-05-08T21:04:09.995Z,14.74
2023-05-08T21:06:36.555Z,14.60
2023-05-08T21:09:04.568Z,14.61
2023-05-08T21:11:33.063Z,14.55
2023-05-08T21:13:59.503Z,14.48
2023-05-08T21:16:26.894Z,14.56
2023-05-08T21:18:55.376Z,14.50
2023-05-08T21:21:23.171Z,14.46
2023-05-08T21:23:49.544Z,14.41
2023-05-08T21:26:15.965Z,14.24
2023-05-08T21:28:42.384Z,14.21
2023-05-08T21:31:08.874Z,14.13
2023-05-08T21:33:35.556Z,14.24
2023-05-08T21:36:01.986Z,14.17
2023-05-08T21:38:28.424Z,14.11
2023-05-08T21:40:55.568Z,14.06
2023-05-08T21:43:21.979Z,14.09
2023-05-08T21:45:48.415Z,14.03
2023-05-08T21:48:14.861Z,14.00
2023-05-08T21:50:41.309Z,13.86
2023-05-08T21:53:07.835Z,13.90
2023-05-08T21:55:34.371Z,13.81
2023-05-08T21:58:00.804Z,13.77
2023-05-08T22:00:27.240Z,13.89
2023-05-08T22:02:53.727Z,13.76
2023-05-08T22:05:20.203Z,13.75
2023-05-08T22:07:47.389Z,13.80
2023-05-08T22:10:13.901Z,13.74
2023-05-08T22:12:40.644Z,13.64
2023-05-08T22:15:14.884Z,13.56
2023-05-08T22:17:49.599Z,13.41
2023-05-08T22:20:16.089Z,13.41
2023-05-08T22:22:42.585Z,13.35
2023-05-08T22:25:09.217Z,13.42
2023-05-08T22:27:35.727Z,13.44
2023-05-08T22:30:02.390Z,13.37
2023-05-08T22:32:29.160Z,13.29
2023-05-08T22:34:55.785Z,13.36
2023-05-08T22:37:22.573Z,13.29
2023-05-08T22:39:49.329Z,13.25
2023-05-08T22:42:16.613Z,13.20
2023-05-08T22:44:44.082Z,13.16
2023-05-08T22:47:11.889Z,13.19
2023-05-08T22:49:40.109Z,13.09
2023-05-08T22:52:07.897Z,12.98
2023-05-08T22:54:34.575Z,12.96
2023-05-08T22:57:01.620Z,13.01
2023-05-08T22:59:28.045Z,13.02
2023-05-08T23:01:54.467Z,12.92
2023-05-08T23:04:21.467Z,12.86
2023-05-08T23:06:48.003Z,12.87
2023-05-08T23:09:14.356Z,12.70
2023-05-08T23:11:40.807Z,12.67
2023-05-08T23:14:07.222Z,12.77
2023-05-08T23:16:34.130Z,12.68
2023-05-08T23:19:00.644Z,12.66
2023-05-08T23:21:27.869Z,12.67
2023-05-08T23:23:54.393Z,12.72
2023-05-08T23:26:20.813Z,12.69
2023-05-08T23:28:47.232Z,12.52
2023-05-08T23:31:13.665Z,12.47
2023-05-08T23:33:40.106Z,12.49
2023-05-08T23:36:07.008Z,12.54
2023-05-08T23:38:34.036Z,12.42
2023-05-08T23:41:01.155Z,12.43
2023-05-08T23:43:28.079Z,12.38
2023-05-08T23:45:54.434Z,12.37
2023-05-08T23:48:21.081Z,12.42
2023-05-08T23:50:48.071Z,12.31
2023-05-08T23:53:15.330Z,12.25
2023-05-08T23:55:41.777Z,12.30
2023-05-08T23:58:08.400Z,12.28
